Time;durP1;ratioP1;P1;durP2;ratioP2;P2;SDS_P1;SDS_P2;PMS_P1;PMS_P2;Temp;Humidity;BMP_temperature;BMP_pressure;BME280_temperature;BME280_humidity;BME280_pressure;Samples;Min_cycle;Max_cycle;Signal;HPM_P1;HPM_P2
2021/08/22 00:02:12;;;;;;;;;;;21.00;94.20;;;;;;4347331;33;43904;-75
2021/08/22 00:04:47;;;;;;;;;;;21.00;94.20;;;;;;4347065;33;43256;-74
2021/08/22 00:07:19;;;;;;;;;;;21.00;94.20;;;;;;4333933;33;42658;-75
2021/08/22 00:09:54;;;;;;;;;;;21.10;94.20;;;;;;4334099;33;43004;-75
2021/08/22 00:12:22;;;;;;;;;;;21.00;94.20;;;;;;4334196;33;42787;-75
2021/08/22 00:14:52;;;;;;;;;;;21.00;94.10;;;;;;4347316;33;43194;-75
2021/08/22 00:17:25;;;;;;;;;;;21.00;94.10;;;;;;4334151;33;43659;-75
2021/08/22 00:19:52;;;;;;;;;;;21.00;94.10;;;;;;4346951;33;43651;-75
2021/08/22 00:22:25;;;;;;;;;;;21.00;94.10;;;;;;4347338;33;44901;-75
2021/08/22 00:25:00;;;;;;;;;;;21.00;94.00;;;;;;4333871;33;42561;-76
2021/08/22 00:27:30;;;;;;;;;;;21.00;94.00;;;;;;4333966;33;44592;-76
2021/08/22 00:30:05;;;;;;;;;;;21.00;94.00;;;;;;4333420;33;43037;-75
2021/08/22 00:32:43;;;;;;;;;;;21.00;94.00;;;;;;4333936;33;43666;-75
2021/08/22 00:35:21;;;;;;;;;;;20.90;94.00;;;;;;4333712;33;44118;-75
2021/08/22 00:37:59;;;;;;;;;;;20.90;94.00;;;;;;4346600;33;42874;-75
2021/08/22 00:40:32;;;;;;;;;;;20.90;94.00;;;;;;4345832;33;43998;-75
2021/08/22 00:43:11;;;;;;;;;;;20.90;93.90;;;;;;4347086;33;43618;-75
2021/08/22 00:45:38;;;;;;;;;;;20.90;93.90;;;;;;4347069;33;44088;-75
2021/08/22 00:48:14;;;;;;;;;;;20.90;93.90;;;;;;4333500;33;43586;-75
2021/08/22 00:50:55;;;;;;;;;;;20.90;94.00;;;;;;4333437;33;43474;-75
2021/08/22 00:53:33;;;;;;;;;;;20.80;93.90;;;;;;4347002;33;44181;-75
2021/08/22 00:56:05;;;;;;;;;;;20.80;93.90;;;;;;4347021;33;43261;-75
2021/08/22 00:58:35;;;;;;;;;;;20.80;93.90;;;;;;4333773;33;43907;-74
2021/08/22 01:01:15;;;;;;;;;;;20.80;93.90;;;;;;4333275;33;44179;-75
2021/08/22 01:03:55;;;;;;;;;;;20.80;93.90;;;;;;4346197;33;44016;-74
2021/08/22 01:06:44;;;;;;;;;;;20.80;93.90;;;;;;4333193;33;44227;-74
2021/08/22 01:09:20;;;;;;;;;;;20.80;93.90;;;;;;4333337;33;42915;-74
2021/08/22 01:11:55;;;;;;;;;;;20.80;93.80;;;;;;4346550;33;43014;-74
2021/08/22 01:14:35;;;;;;;;;;;20.80;93.80;;;;;;4333154;33;43167;-74
2021/08/22 01:17:13;;;;;;;;;;;20.80;93.70;;;;;;4332706;33;41911;-74
2021/08/22 01:20:06;;;;;;;;;;;20.80;93.70;;;;;;4333412;33;21572;-74
2021/08/22 01:22:42;;;;;;;;;;;20.70;93.60;;;;;;4333235;33;44211;-74
2021/08/22 01:25:18;;;;;;;;;;;20.70;93.60;;;;;;4346485;33;44920;-75
2021/08/22 01:27:48;;;;;;;;;;;20.70;93.60;;;;;;4346447;33;42502;-74
2021/08/22 01:30:21;;;;;;;;;;;20.70;93.50;;;;;;4332711;33;42579;-74
2021/08/22 01:32:59;;;;;;;;;;;20.70;93.50;;;;;;4332525;33;43348;-76
2021/08/22 01:35:34;;;;;;;;;;;20.70;93.50;;;;;;4345861;33;42561;-74
2021/08/22 01:38:08;;;;;;;;;;;20.60;93.50;;;;;;4332904;33;44228;-75
2021/08/22 01:40:44;;;;;;;;;;;20.60;93.50;;;;;;4332956;33;44815;-74
2021/08/22 01:43:22;;;;;;;;;;;20.60;93.50;;;;;;4332759;33;44127;-75
2021/08/22 01:46:00;;;;;;;;;;;20.60;93.50;;;;;;4332419;33;43774;-75
2021/08/22 01:48:39;;;;;;;;;;;20.50;93.50;;;;;;4333121;33;43817;-75
2021/08/22 01:51:12;;;;;;;;;;;20.50;93.40;;;;;;4345979;33;43505;-75
2021/08/22 01:53:47;;;;;;;;;;;20.50;93.40;;;;;;4332976;33;43961;-75
2021/08/22 01:56:17;;;;;;;;;;;20.50;93.40;;;;;;4332522;33;43020;-75
2021/08/22 01:58:55;;;;;;;;;;;20.40;93.40;;;;;;4345656;33;42049;-74
2021/08/22 02:01:30;;;;;;;;;;;20.40;93.40;;;;;;4345679;33;45025;-75
2021/08/22 02:04:22;;;;;;;;;;;20.40;93.40;;;;;;4345186;33;42091;-75
2021/08/22 02:07:00;;;;;;;;;;;20.40;93.40;;;;;;4345820;33;43912;-75
2021/08/22 02:09:38;;;;;;;;;;;20.40;93.40;;;;;;4345726;33;44940;-75
2021/08/22 02:12:16;;;;;;;;;;;20.40;93.40;;;;;;4345817;33;43125;-74
2021/08/22 02:14:58;;;;;;;;;;;20.30;93.40;;;;;;4332386;33;43772;-75
2021/08/22 02:17:48;;;;;;;;;;;20.30;93.30;;;;;;4345723;33;44187;-75
2021/08/22 02:20:26;;;;;;;;;;;20.30;93.30;;;;;;4333048;33;20044;-75
2021/08/22 02:23:01;;;;;;;;;;;20.30;93.40;;;;;;4345148;33;42843;-75
2021/08/22 02:25:41;;;;;;;;;;;20.30;93.30;;;;;;4332823;33;42930;-75
2021/08/22 02:28:16;;;;;;;;;;;20.30;93.40;;;;;;4345344;33;42592;-75
2021/08/22 02:30:43;;;;;;;;;;;20.30;93.40;;;;;;4345536;33;44171;-75
2021/08/22 02:33:21;;;;;;;;;;;20.20;93.40;;;;;;4332235;33;43057;-75
2021/08/22 02:36:00;;;;;;;;;;;20.20;93.50;;;;;;4345080;33;44100;-75
2021/08/22 02:38:36;;;;;;;;;;;20.20;93.50;;;;;;4331909;33;42883;-75
2021/08/22 02:41:11;;;;;;;;;;;20.10;93.50;;;;;;4331958;33;42792;-75
2021/08/22 02:43:50;;;;;;;;;;;20.20;93.60;;;;;;4331626;33;45535;-75
2021/08/22 02:46:25;;;;;;;;;;;20.20;93.60;;;;;;4345016;33;42800;-75
2021/08/22 02:49:01;;;;;;;;;;;20.10;93.60;;;;;;4345320;33;44934;-75
2021/08/22 02:51:34;;;;;;;;;;;20.10;93.70;;;;;;4345904;33;21257;-75
2021/08/22 02:54:04;;;;;;;;;;;20.20;93.70;;;;;;4345211;33;44202;-75
2021/08/22 02:56:39;;;;;;;;;;;20.10;93.70;;;;;;4344795;33;44202;-75
2021/08/22 02:59:06;;;;;;;;;;;20.10;93.70;;;;;;4331568;33;43027;-76
2021/08/22 03:01:36;;;;;;;;;;;20.10;93.70;;;;;;4331640;33;42377;-75
2021/08/22 03:04:09;;;;;;;;;;;20.10;93.70;;;;;;4333139;33;42237;-75
2021/08/22 03:06:46;;;;;;;;;;;20.10;93.70;;;;;;4335052;33;43095;-75
2021/08/22 03:09:18;;;;;;;;;;;20.20;93.70;;;;;;4347833;33;42549;-75
2021/08/22 03:11:51;;;;;;;;;;;20.10;93.80;;;;;;4348323;33;44849;-75
2021/08/22 03:14:24;;;;;;;;;;;20.10;93.80;;;;;;4334989;33;42536;-75
2021/08/22 03:16:56;;;;;;;;;;;20.10;93.80;;;;;;4348084;33;43846;-75
2021/08/22 03:19:34;;;;;;;;;;;20.00;93.80;;;;;;4334875;33;43071;-75
2021/08/22 03:22:07;;;;;;;;;;;20.00;93.90;;;;;;4348893;33;20021;-75
2021/08/22 03:24:34;;;;;;;;;;;20.00;93.90;;;;;;4347873;33;42697;-75
2021/08/22 03:27:06;;;;;;;;;;;20.00;94.00;;;;;;4334870;33;44029;-75
2021/08/22 03:29:33;;;;;;;;;;;20.00;94.00;;;;;;4347777;33;43943;-75
2021/08/22 03:32:08;;;;;;;;;;;20.00;94.10;;;;;;4347534;33;43450;-75
2021/08/22 03:34:38;;;;;;;;;;;20.00;94.10;;;;;;4348097;33;43927;-75
2021/08/22 03:37:16;;;;;;;;;;;19.90;94.10;;;;;;4334050;33;43262;-75
2021/08/22 03:39:46;;;;;;;;;;;19.90;94.10;;;;;;4348043;33;44012;-75
2021/08/22 03:42:16;;;;;;;;;;;19.90;94.20;;;;;;4334755;33;43567;-75
2021/08/22 03:44:50;;;;;;;;;;;19.90;94.20;;;;;;4347407;33;43011;-75
2021/08/22 03:47:23;;;;;;;;;;;19.90;94.20;;;;;;4334060;33;42875;-75
2021/08/22 03:49:51;;;;;;;;;;;19.90;94.20;;;;;;4347846;33;43499;-75
2021/08/22 03:52:26;;;;;;;;;;;19.80;94.20;;;;;;4347566;33;42820;-75
2021/08/22 03:55:01;;;;;;;;;;;19.80;94.20;;;;;;4334412;33;43679;-75
2021/08/22 03:57:29;;;;;;;;;;;19.90;94.60;;;;;;4347615;33;43842;-75
2021/08/22 04:00:07;;;;;;;;;;;19.90;94.30;;;;;;4334559;33;43572;-75
2021/08/22 04:02:37;;;;;;;;;;;19.80;94.30;;;;;;4347376;33;44268;-75
2021/08/22 04:05:12;;;;;;;;;;;19.80;94.30;;;;;;4334008;33;42812;-75
2021/08/22 04:07:49;;;;;;;;;;;19.80;94.30;;;;;;4347669;33;43695;-75
2021/08/22 04:10:16;;;;;;;;;;;19.80;94.30;;;;;;4334421;33;43195;-75
2021/08/22 04:12:46;;;;;;;;;;;19.80;94.30;;;;;;4347462;33;44845;-76
2021/08/22 04:15:19;;;;;;;;;;;19.80;94.40;;;;;;4346139;33;43690;-75
2021/08/22 04:17:57;;;;;;;;;;;19.80;94.40;;;;;;4347259;33;43466;-75
2021/08/22 04:20:24;;;;;;;;;;;19.80;94.40;;;;;;4333998;33;45988;-75
2021/08/22 04:23:02;;;;;;;;;;;19.80;94.40;;;;;;4348112;33;19997;-75
2021/08/22 04:25:40;;;;;;;;;;;19.80;94.40;;;;;;4333860;33;43365;-75
2021/08/22 04:28:18;;;;;;;;;;;19.80;94.40;;;;;;4346710;33;42661;-75
2021/08/22 04:30:52;;;;;;;;;;;19.80;94.40;;;;;;4347340;33;42863;-74
2021/08/22 04:33:28;;;;;;;;;;;19.80;94.40;;;;;;4333825;33;45374;-74
2021/08/22 04:36:06;;;;;;;;;;;19.80;94.40;;;;;;4334226;33;43892;-75
2021/08/22 04:38:42;;;;;;;;;;;19.80;94.40;;;;;;4347044;33;43024;-75
2021/08/22 04:41:15;;;;;;;;;;;19.80;94.50;;;;;;4346836;33;42842;-74
2021/08/22 04:43:50;;;;;;;;;;;19.80;94.40;;;;;;4333363;33;42841;-74
2021/08/22 04:46:25;;;;;;;;;;;19.80;94.40;;;;;;4346900;33;42934;-74
2021/08/22 04:49:03;;;;;;;;;;;19.80;94.50;;;;;;4346849;33;44576;-74
2021/08/22 04:51:38;;;;;;;;;;;19.80;94.40;;;;;;4333081;33;43511;-74
2021/08/22 04:54:16;;;;;;;;;;;19.80;94.40;;;;;;4348076;33;20005;-74
2021/08/22 04:56:49;;;;;;;;;;;19.80;94.40;;;;;;4346861;33;43850;-74
2021/08/22 04:59:24;;;;;;;;;;;19.80;94.40;;;;;;4333570;33;43908;-74
2021/08/22 05:01:59;;;;;;;;;;;19.80;94.40;;;;;;4346454;33;43301;-75
2021/08/22 05:04:37;;;;;;;;;;;19.80;94.50;;;;;;4346431;33;42634;-75
2021/08/22 05:07:15;;;;;;;;;;;19.80;94.40;;;;;;4333140;33;42827;-74
2021/08/22 05:09:45;;;;;;;;;;;19.80;94.50;;;;;;4346766;33;43875;-75
2021/08/22 05:12:20;;;;;;;;;;;19.80;94.50;;;;;;4346173;33;43036;-75
2021/08/22 05:14:55;;;;;;;;;;;19.80;94.50;;;;;;4332747;33;44350;-75
2021/08/22 05:17:30;;;;;;;;;;;19.80;94.50;;;;;;4346402;33;43860;-75
2021/08/22 05:20:08;;;;;;;;;;;19.80;94.50;;;;;;4333073;33;44692;-75
2021/08/22 05:22:43;;;;;;;;;;;19.80;94.50;;;;;;4332589;33;45769;-74
2021/08/22 05:25:18;;;;;;;;;;;19.80;94.50;;;;;;4347221;33;20339;-74
2021/08/22 05:27:53;;;;;;;;;;;19.80;94.50;;;;;;4346166;33;43671;-74
2021/08/22 05:30:26;;;;;;;;;;;19.80;94.60;;;;;;4333066;33;43297;-74
2021/08/22 05:33:04;;;;;;;;;;;19.80;94.60;;;;;;4332851;33;44200;-74
2021/08/22 05:35:34;;;;;;;;;;;19.80;94.70;;;;;;4345820;33;43450;-75
2021/08/22 05:38:10;;;;;;;;;;;19.80;94.70;;;;;;4345949;33;43775;-74
2021/08/22 05:40:48;;;;;;;;;;;19.80;94.70;;;;;;4332519;33;42702;-74
2021/08/22 05:43:26;;;;;;;;;;;19.80;94.70;;;;;;4346148;33;43049;-74
2021/08/22 05:46:05;;;;;;;;;;;19.80;94.70;;;;;;4332913;33;44281;-74
2021/08/22 05:48:40;;;;;;;;;;;19.80;94.70;;;;;;4345837;33;42150;-74
2021/08/22 05:51:20;;;;;;;;;;;19.70;94.70;;;;;;4346032;33;43106;-74
2021/08/22 05:53:58;;;;;;;;;;;19.80;94.70;;;;;;4346080;33;43884;-74
2021/08/22 05:56:33;;;;;;;;;;;19.80;94.70;;;;;;4346405;33;19997;-74
2021/08/22 05:59:11;;;;;;;;;;;19.80;94.70;;;;;;4345996;33;44195;-74
2021/08/22 06:01:46;;;;;;;;;;;19.80;94.70;;;;;;4332592;33;43887;-75
2021/08/22 06:04:21;;;;;;;;;;;19.80;94.70;;;;;;4345912;33;43921;-74
2021/08/22 06:06:57;;;;;;;;;;;19.80;94.70;;;;;;4345727;33;44671;-74
2021/08/22 06:09:28;;;;;;;;;;;19.70;94.70;;;;;;4345838;33;42843;-74
2021/08/22 06:12:03;;;;;;;;;;;19.70;94.70;;;;;;4332380;33;44162;-75
2021/08/22 06:14:39;;;;;;;;;;;19.80;94.80;;;;;;4331812;33;44514;-74
2021/08/22 06:17:14;;;;;;;;;;;19.70;94.80;;;;;;4332385;33;42491;-75
2021/08/22 06:19:52;;;;;;;;;;;19.70;94.80;;;;;;4332052;33;42639;-75
2021/08/22 06:22:27;;;;;;;;;;;19.70;94.90;;;;;;4332390;33;44982;-74
2021/08/22 06:25:06;;;;;;;;;;;19.70;94.90;;;;;;4332072;33;44386;-74
2021/08/22 06:27:44;;;;;;;;;;;19.70;94.90;;;;;;4346399;33;19993;-74
2021/08/22 06:30:19;;;;;;;;;;;19.70;94.90;;;;;;4345388;33;42144;-74
2021/08/22 06:32:54;;;;;;;;;;;19.70;94.90;;;;;;4345591;33;43187;-74
2021/08/22 06:35:27;;;;;;;;;;;19.60;94.90;;;;;;4332254;33;43133;-74
2021/08/22 06:37:55;;;;;;;;;;;19.60;94.80;;;;;;4345083;33;43478;-75
2021/08/22 06:40:30;;;;;;;;;;;19.60;94.90;;;;;;4345483;33;44223;-75
2021/08/22 06:43:08;;;;;;;;;;;19.60;94.80;;;;;;4345162;33;43330;-74
2021/08/22 06:45:38;;;;;;;;;;;19.60;94.80;;;;;;4332132;33;43325;-74
2021/08/22 06:48:11;;;;;;;;;;;19.60;94.80;;;;;;4344944;33;43990;-74
2021/08/22 06:50:54;;;;;;;;;;;19.60;94.80;;;;;;4345494;33;43673;-74
2021/08/22 06:53:29;;;;;;;;;;;19.60;94.80;;;;;;4345326;33;44569;-74
2021/08/22 06:55:59;;;;;;;;;;;19.60;94.80;;;;;;4332197;33;43857;-74
2021/08/22 06:58:32;;;;;;;;;;;19.60;94.80;;;;;;4345721;33;20009;-74
2021/08/22 07:01:05;;;;;;;;;;;19.50;94.70;;;;;;4345078;33;43326;-74
2021/08/22 07:03:33;;;;;;;;;;;19.50;94.70;;;;;;4344780;33;44060;-75
2021/08/22 07:06:03;;;;;;;;;;;19.60;94.80;;;;;;4331652;33;42563;-75
2021/08/22 07:08:38;;;;;;;;;;;19.60;94.80;;;;;;4345143;33;42895;-74
2021/08/22 07:11:12;;;;;;;;;;;19.60;94.70;;;;;;4345279;33;43710;-74
2021/08/22 07:13:42;;;;;;;;;;;19.60;94.70;;;;;;4331803;33;42922;-74
2021/08/22 07:16:16;;;;;;;;;;;19.60;94.80;;;;;;4331668;33;43483;-74
2021/08/22 07:18:46;;;;;;;;;;;19.60;94.80;;;;;;4331908;33;44973;-74
2021/08/22 07:21:17;;;;;;;;;;;19.60;94.80;;;;;;4331477;33;46137;-74
2021/08/22 07:23:47;;;;;;;;;;;19.60;94.80;;;;;;4344987;33;43229;-75
2021/08/22 07:26:15;;;;;;;;;;;19.60;94.80;;;;;;4332269;33;43195;-74
2021/08/22 07:28:45;;;;;;;;;;;19.60;94.80;;;;;;4332534;33;19997;-74
2021/08/22 07:31:15;;;;;;;;;;;19.60;94.80;;;;;;4345146;33;44203;-75
2021/08/22 07:33:44;;;;;;;;;;;19.60;94.80;;;;;;4331959;33;44253;-74
2021/08/22 07:36:14;;;;;;;;;;;19.60;94.90;;;;;;4344837;33;42949;-74
2021/08/22 07:38:44;;;;;;;;;;;19.60;94.90;;;;;;4344876;33;43841;-75
2021/08/22 07:41:13;;;;;;;;;;;19.60;94.90;;;;;;4344860;33;44362;-74
2021/08/22 07:43:40;;;;;;;;;;;19.60;94.90;;;;;;4344633;33;43252;-74
2021/08/22 07:46:13;;;;;;;;;;;19.60;94.90;;;;;;4331800;33;43713;-74
2021/08/22 07:48:40;;;;;;;;;;;19.60;94.80;;;;;;4344858;33;43455;-74
2021/08/22 07:51:10;;;;;;;;;;;19.50;94.70;;;;;;4347045;33;43799;-74
2021/08/22 07:53:40;;;;;;;;;;;19.50;94.70;;;;;;4334502;33;42927;-75
2021/08/22 07:56:07;;;;;;;;;;;19.50;94.70;;;;;;4347452;33;42724;-74
2021/08/22 07:58:45;;;;;;;;;;;19.50;94.70;;;;;;4333785;33;43667;-74
2021/08/22 08:01:12;;;;;;;;;;;19.50;94.70;;;;;;4348433;33;19997;-75
2021/08/22 08:03:50;;;;;;;;;;;19.50;94.70;;;;;;4346930;33;42144;-75
2021/08/22 08:06:20;;;;;;;;;;;19.50;94.70;;;;;;4347317;33;43398;-75
2021/08/22 08:08:59;;;;;;;;;;;19.50;94.70;;;;;;4347615;33;43972;-74
2021/08/22 08:11:26;;;;;;;;;;;19.50;94.70;;;;;;4334088;33;43603;-74
2021/08/22 08:13:56;;;;;;;;;;;19.50;94.70;;;;;;4334029;33;42811;-75
2021/08/22 08:16:28;;;;;;;;;;;19.50;94.70;;;;;;4346764;33;43488;-75
2021/08/22 08:18:56;;;;;;;;;;;19.40;94.60;;;;;;4347531;33;43030;-74
2021/08/22 08:21:26;;;;;;;;;;;19.40;94.60;;;;;;4347107;33;43582;-74
2021/08/22 08:23:53;;;;;;;;;;;19.40;94.60;;;;;;4347221;33;44118;-74
2021/08/22 08:26:25;;;;;;;;;;;19.40;94.60;;;;;;4347127;33;43787;-74
2021/08/22 08:28:59;;;;;;;;;;;19.40;94.60;;;;;;4333865;33;44873;-75
2021/08/22 08:31:29;;;;;;;;;;;19.40;94.60;;;;;;4347780;33;19989;-74
2021/08/22 08:34:02;;;;;;;;;;;19.40;94.60;;;;;;4347219;33;44839;-74
2021/08/22 08:36:32;;;;;;;;;;;19.40;94.60;;;;;;4333916;33;43876;-74
2021/08/22 08:39:04;;;;;;;;;;;19.40;94.70;;;;;;4346903;33;45827;-74
2021/08/22 08:41:31;;;;;;;;;;;19.40;94.60;;;;;;4347157;33;45797;-74
2021/08/22 08:44:11;;;;;;;;;;;19.40;94.60;;;;;;4346621;33;43849;-75
2021/08/22 08:46:53;;;;;;;;;;;19.40;94.60;;;;;;4347224;33;43779;-74
2021/08/22 08:49:27;;;;;;;;;;;19.30;94.60;;;;;;4346900;33;44087;-74
2021/08/22 08:52:06;;;;;;;;;;;19.30;94.60;;;;;;4346993;33;43691;-74
2021/08/22 08:54:36;;;;;;;;;;;19.30;94.50;;;;;;4346881;33;43491;-74
2021/08/22 08:57:04;;;;;;;;;;;19.30;94.50;;;;;;4346656;33;42933;-74
2021/08/22 08:59:38;;;;;;;;;;;19.30;94.90;;;;;;4346575;33;42139;-74
2021/08/22 09:02:10;;;;;;;;;;;19.30;94.60;;;;;;4333698;33;20371;-74
2021/08/22 09:05:13;;;;;;;;;;;19.30;94.60;;;;;;4346942;33;43170;-74
2021/08/22 09:08:02;;;;;;;;;;;19.30;94.50;;;;;;4314473;33;44210;-75
2021/08/22 09:10:48;;;;;;;;;;;19.40;94.50;;;;;;4333420;33;43753;-75
2021/08/22 09:13:34;;;;;;;;;;;19.30;94.40;;;;;;4333683;33;43006;-75
2021/08/22 09:16:13;;;;;;;;;;;19.30;94.40;;;;;;4332885;33;43036;-74
2021/08/22 09:19:06;;;;;;;;;;;19.30;94.40;;;;;;4346475;33;43330;-76
2021/08/22 09:21:40;;;;;;;;;;;19.30;94.50;;;;;;4346493;33;43508;-74
2021/08/22 09:24:25;;;;;;;;;;;19.30;94.50;;;;;;4346219;33;44202;-73
2021/08/22 09:27:05;;;;;;;;;;;19.40;94.50;;;;;;4333114;33;43131;-74
2021/08/22 09:29:50;;;;;;;;;;;19.30;94.60;;;;;;4346168;33;43834;-74
2021/08/22 09:32:37;;;;;;;;;;;19.30;94.60;;;;;;4347101;33;20348;-74
2021/08/22 09:35:22;;;;;;;;;;;19.40;94.60;;;;;;4333091;33;43041;-74
2021/08/22 09:38:08;;;;;;;;;;;19.40;94.60;;;;;;4332904;33;43903;-74
2021/08/22 09:40:36;;;;;;;;;;;19.40;94.50;;;;;;4346493;33;43561;-74
2021/08/22 09:43:21;;;;;;;;;;;19.40;94.50;;;;;;4332836;33;45807;-74
2021/08/22 09:46:07;;;;;;;;;;;19.40;94.50;;;;;;4346072;33;45612;-74
2021/08/22 09:48:53;;;;;;;;;;;19.40;94.50;;;;;;4345743;33;43898;-75
2021/08/22 09:51:59;;;;;;;;;;;19.40;94.40;;;;;;4345581;33;42762;-74
2021/08/22 09:54:57;;;;;;;;;;;19.40;94.40;;;;;;4285363;33;43648;-75
2021/08/22 09:57:45;;;;;;;;;;;19.40;94.40;;;;;;4285409;33;43737;-74
2021/08/22 10:00:35;;;;;;;;;;;19.40;94.30;;;;;;4335289;33;43865;-75
2021/08/22 10:03:12;;;;;;;;;;;19.40;94.30;;;;;;4332889;33;20044;-75
2021/08/22 10:05:45;;;;;;;;;;;19.40;94.30;;;;;;4332775;33;44896;-74
2021/08/22 10:08:23;;;;;;;;;;;19.40;94.30;;;;;;4345803;33;42991;-74
2021/08/22 10:10:59;;;;;;;;;;;19.40;94.30;;;;;;4332069;33;42534;-75
2021/08/22 10:13:31;;;;;;;;;;;19.40;94.20;;;;;;4345618;33;44795;-75
2021/08/22 10:16:05;;;;;;;;;;;19.40;94.30;;;;;;4345989;33;43865;-76
2021/08/22 10:18:37;;;;;;;;;;;19.40;94.30;;;;;;4346009;33;43973;-74
2021/08/22 10:21:16;;;;;;;;;;;19.40;94.30;;;;;;4345644;33;45048;-74
2021/08/22 10:23:43;;;;;;;;;;;19.40;94.20;;;;;;4345638;33;43700;-74
2021/08/22 10:26:36;;;;;;;;;;;19.40;94.20;;;;;;4345096;33;43939;-75
2021/08/22 10:29:25;;;;;;;;;;;19.40;94.20;;;;;;4337641;33;43930;-74
2021/08/22 10:31:58;;;;;;;;;;;19.40;94.10;;;;;;4332332;33;43180;-75
2021/08/22 10:34:31;;;;;;;;;;;19.40;94.10;;;;;;4346126;33;20031;-74
2021/08/22 10:37:18;;;;;;;;;;;19.40;94.10;;;;;;4331827;33;42843;-75
2021/08/22 10:39:45;;;;;;;;;;;19.40;94.20;;;;;;4331983;33;44128;-75
2021/08/22 10:42:19;;;;;;;;;;;19.40;94.20;;;;;;4345490;33;43569;-74
2021/08/22 10:44:46;;;;;;;;;;;19.40;94.30;;;;;;4331759;33;41942;-75
2021/08/22 10:47:33;;;;;;;;;;;19.40;94.30;;;;;;4331789;33;43759;-74
2021/08/22 10:50:03;;;;;;;;;;;19.40;94.40;;;;;;4345408;33;44225;-75
2021/08/22 10:52:34;;;;;;;;;;;19.40;94.40;;;;;;4345341;33;43065;-75
2021/08/22 10:55:13;;;;;;;;;;;19.40;94.40;;;;;;4332028;33;43047;-74
2021/08/22 10:57:43;;;;;;;;;;;19.40;94.40;;;;;;4332251;33;43322;-75
2021/08/22 11:00:22;;;;;;;;;;;19.40;94.40;;;;;;4332842;33;43687;-75
2021/08/22 11:02:53;;;;;;;;;;;19.40;94.40;;;;;;4344830;33;43874;-74
2021/08/22 11:05:30;;;;;;;;;;;19.40;94.50;;;;;;4346040;33;20095;-75
2021/08/22 11:08:10;;;;;;;;;;;19.40;94.50;;;;;;4332090;33;42800;-74
2021/08/22 11:10:38;;;;;;;;;;;19.30;94.50;;;;;;4345297;33;43906;-75
2021/08/22 11:13:10;;;;;;;;;;;19.40;94.60;;;;;;4345068;33;43328;-75
2021/08/22 11:15:43;;;;;;;;;;;19.40;94.60;;;;;;4345164;33;43452;-75
2021/08/22 11:18:15;;;;;;;;;;;19.40;94.50;;;;;;4331510;33;42783;-74
2021/08/22 11:20:52;;;;;;;;;;;19.30;94.50;;;;;;4331690;33;44200;-74
2021/08/22 11:23:19;;;;;;;;;;;19.40;94.60;;;;;;4331945;33;43769;-74
2021/08/22 11:25:52;;;;;;;;;;;19.30;94.50;;;;;;4347419;33;43266;-75
2021/08/22 11:28:22;;;;;;;;;;;19.30;94.50;;;;;;4348350;33;42971;-74
2021/08/22 11:30:54;;;;;;;;;;;19.40;94.50;;;;;;4347577;33;43580;-75
2021/08/22 11:33:22;;;;;;;;;;;19.30;94.50;;;;;;4347974;33;44799;-74
2021/08/22 11:35:50;;;;;;;;;;;19.30;94.50;;;;;;4335548;33;19994;-74
2021/08/22 11:38:19;;;;;;;;;;;19.30;94.50;;;;;;4348023;33;44179;-75
2021/08/22 11:40:49;;;;;;;;;;;19.40;94.60;;;;;;4347839;33;43742;-74
2021/08/22 11:43:16;;;;;;;;;;;19.40;94.60;;;;;;4334505;33;43082;-75
2021/08/22 11:45:49;;;;;;;;;;;19.40;94.50;;;;;;4347463;33;42704;-74
2021/08/22 11:48:20;;;;;;;;;;;19.40;94.60;;;;;;4334009;33;42776;-75
2021/08/22 11:50:48;;;;;;;;;;;19.40;94.60;;;;;;4334763;33;43313;-75
2021/08/22 11:53:27;;;;;;;;;;;19.40;94.50;;;;;;4347788;33;44127;-75
2021/08/22 11:56:02;;;;;;;;;;;19.30;94.50;;;;;;4347337;33;42518;-75
2021/08/22 11:58:40;;;;;;;;;;;19.40;94.60;;;;;;4347753;33;44182;-74
2021/08/22 12:01:17;;;;;;;;;;;19.40;94.60;;;;;;4347649;33;43899;-75
2021/08/22 12:03:59;;;;;;;;;;;19.40;94.50;;;;;;4347343;33;45053;-75
2021/08/22 12:06:33;;;;;;;;;;;19.40;94.50;;;;;;4334694;33;22148;-75
2021/08/22 12:09:03;;;;;;;;;;;19.40;94.50;;;;;;4347263;33;43986;-75
2021/08/22 12:11:33;;;;;;;;;;;19.40;94.50;;;;;;4347289;33;43455;-75
2021/08/22 12:14:20;;;;;;;;;;;19.40;94.50;;;;;;4347639;33;43086;-76
2021/08/22 12:16:58;;;;;;;;;;;19.40;94.50;;;;;;4333717;33;42372;-74
2021/08/22 12:19:26;;;;;;;;;;;19.50;94.50;;;;;;4347346;33;44325;-75
2021/08/22 12:21:57;;;;;;;;;;;19.50;94.50;;;;;;4346815;33;42901;-75
2021/08/22 12:24:31;;;;;;;;;;;19.50;94.50;;;;;;4334236;33;43506;-75
2021/08/22 12:27:02;;;;;;;;;;;19.50;94.40;;;;;;4347244;33;43180;-75
2021/08/22 12:29:29;;;;;;;;;;;19.50;94.40;;;;;;4346782;33;42697;-75
2021/08/22 12:32:10;;;;;;;;;;;19.50;94.40;;;;;;4347199;33;43258;-74
2021/08/22 12:34:45;;;;;;;;;;;19.60;94.40;;;;;;4333743;33;44003;-75
2021/08/22 12:37:21;;;;;;;;;;;19.60;94.40;;;;;;4345943;33;43193;-74
2021/08/22 12:39:55;;;;;;;;;;;19.60;94.30;;;;;;4347097;33;43905;-75
2021/08/22 12:42:25;;;;;;;;;;;19.60;94.30;;;;;;4347131;33;42978;-75
2021/08/22 12:45:04;;;;;;;;;;;19.60;94.30;;;;;;4333716;33;44232;-74
2021/08/22 12:47:37;;;;;;;;;;;19.60;94.30;;;;;;4333836;33;43694;-74
2021/08/22 12:50:12;;;;;;;;;;;19.60;94.30;;;;;;4346891;33;44291;-75
2021/08/22 12:52:44;;;;;;;;;;;19.60;94.30;;;;;;4333672;33;43457;-75
2021/08/22 12:55:14;;;;;;;;;;;19.60;94.20;;;;;;4347041;33;42913;-75
2021/08/22 12:57:44;;;;;;;;;;;19.60;94.30;;;;;;4346915;33;44264;-74
2021/08/22 13:00:14;;;;;;;;;;;19.70;94.30;;;;;;4346641;33;43474;-75
2021/08/22 13:02:47;;;;;;;;;;;19.80;94.30;;;;;;4333271;33;43043;-74
2021/08/22 13:05:17;;;;;;;;;;;19.80;94.20;;;;;;4346319;33;43687;-74
2021/08/22 13:07:52;;;;;;;;;;;19.80;94.00;;;;;;4347194;33;19993;-75
2021/08/22 13:10:20;;;;;;;;;;;19.80;94.00;;;;;;4346755;33;43846;-75
2021/08/22 13:12:55;;;;;;;;;;;19.80;94.10;;;;;;4346540;33;43330;-75
2021/08/22 13:15:22;;;;;;;;;;;19.80;94.10;;;;;;4346797;33;43184;-74
2021/08/22 13:18:03;;;;;;;;;;;19.80;94.30;;;;;;4333487;33;43199;-76
2021/08/22 13:20:33;;;;;;;;;;;19.80;93.90;;;;;;4332765;33;42789;-74
2021/08/22 13:23:03;;;;;;;;;;;19.90;93.90;;;;;;4333154;33;42952;-74
2021/08/22 13:25:32;;;;;;;;;;;19.90;93.90;;;;;;4333055;33;42479;-75
2021/08/22 13:28:05;;;;;;;;;;;19.90;93.90;;;;;;4346735;33;43912;-75
2021/08/22 13:30:35;;;;;;;;;;;19.90;93.80;;;;;;4332647;33;42602;-75
2021/08/22 13:33:05;;;;;;;;;;;19.90;93.80;;;;;;4345723;33;43098;-75
2021/08/22 13:35:40;;;;;;;;;;;19.90;93.80;;;;;;4332839;33;42137;-74
2021/08/22 13:38:08;;;;;;;;;;;19.90;93.70;;;;;;4347090;33;20036;-75
2021/08/22 13:40:43;;;;;;;;;;;19.90;93.80;;;;;;4332478;33;43790;-76
2021/08/22 13:43:20;;;;;;;;;;;19.90;93.70;;;;;;4346227;33;45755;-75
2021/08/22 13:45:53;;;;;;;;;;;19.90;93.70;;;;;;4332375;33;44303;-74
2021/08/22 13:48:28;;;;;;;;;;;19.90;93.90;;;;;;4345953;33;42910;-75
2021/08/22 13:50:58;;;;;;;;;;;19.90;93.70;;;;;;4346439;33;44155;-74
2021/08/22 13:53:33;;;;;;;;;;;19.90;93.90;;;;;;4332814;33;43727;-74
2021/08/22 13:56:08;;;;;;;;;;;19.90;93.70;;;;;;4332346;33;42520;-74
2021/08/22 13:58:46;;;;;;;;;;;19.90;93.60;;;;;;4332537;33;43321;-74
2021/08/22 14:01:21;;;;;;;;;;;19.90;93.70;;;;;;4332573;33;43893;-75
2021/08/22 14:03:49;;;;;;;;;;;20.00;93.70;;;;;;4345519;33;42381;-74
2021/08/22 14:06:27;;;;;;;;;;;20.00;93.70;;;;;;4332357;33;42688;-75
2021/08/22 14:09:02;;;;;;;;;;;20.00;93.50;;;;;;4333721;33;20036;-74
2021/08/22 14:11:41;;;;;;;;;;;19.90;93.60;;;;;;4345770;33;43627;-75
2021/08/22 14:14:16;;;;;;;;;;;19.90;93.60;;;;;;4345299;33;43506;-74
2021/08/22 14:16:51;;;;;;;;;;;20.00;93.70;;;;;;4345925;33;42936;-75
2021/08/22 14:19:27;;;;;;;;;;;19.90;93.60;;;;;;4345805;33;43018;-75
2021/08/22 14:21:56;;;;;;;;;;;20.00;93.60;;;;;;4345603;33;42945;-75
2021/08/22 14:24:29;;;;;;;;;;;20.00;93.60;;;;;;4320222;33;44050;-75
2021/08/22 14:26:58;;;;;;;;;;;20.00;93.60;;;;;;4345321;33;42557;-74
2021/08/22 14:29:31;;;;;;;;;;;20.00;93.60;;;;;;4345573;33;42808;-74
2021/08/22 14:32:07;;;;;;;;;;;20.00;93.50;;;;;;4345590;33;44228;-74
2021/08/22 14:34:36;;;;;;;;;;;20.00;93.60;;;;;;4332878;33;44244;-75
2021/08/22 14:37:09;;;;;;;;;;;20.00;93.60;;;;;;4345589;33;43554;-75
2021/08/22 14:39:46;;;;;;;;;;;20.00;93.60;;;;;;4346834;33;19998;-74
2021/08/22 14:42:19;;;;;;;;;;;20.00;93.50;;;;;;4345483;33;44224;-74
2021/08/22 14:44:55;;;;;;;;;;;20.00;93.50;;;;;;4345396;33;43329;-75
2021/08/22 14:47:22;;;;;;;;;;;20.00;93.50;;;;;;4331759;33;43940;-75
2021/08/22 14:49:55;;;;;;;;;;;20.10;93.50;;;;;;4331884;33;42486;-74
2021/08/22 14:52:30;;;;;;;;;;;20.00;93.50;;;;;;4331667;33;43507;-74
2021/08/22 14:55:03;;;;;;;;;;;20.10;93.40;;;;;;4332087;33;43190;-74
2021/08/22 14:57:38;;;;;;;;;;;20.00;93.50;;;;;;4344844;33;43766;-74
2021/08/22 15:00:11;;;;;;;;;;;20.10;93.50;;;;;;4344660;33;43679;-75